This is the latest recevied weather packets stored in our database for station/object WA7ABU-29. If no packets are shown the sender has not sent any weather packets the latest 10 day(s).
| Time | Temp. | Humidity | Pressure | Rain* | Wind** | Luminosity | Snow |
|---|---|---|---|---|---|---|---|
| 1777140353 | 14.44° C | 53% | 992.2 hPa | 0 mm | - | - | - |
| 1777140207 | 13.89° C | 51% | 992.2 hPa | 0 mm | - | - | - |
| 1777138927 | 13.33° C | 52% | 992.2 hPa | 0 mm | - | - | - |
| 1777138782 | 13.33° C | 54% | 992.2 hPa | 0 mm | - | - | - |
| 1777138222 | 13.33° C | 52% | 992.2 hPa | 0 mm | - | - | - |
| 1777137684 | 12.78° C | 52% | 992.6 hPa | 0 mm | - | - | - |
| 1777136843 | 12.22° C | 56% | 992.6 hPa | 0 mm | - | - | - |
| 1777136439 | 12.22° C | 60% | 992.6 hPa | 0 mm | - | - | - |
| 1777135292 | 12.22° C | 55% | 992.6 hPa | 0 mm | - | - | - |
| 1777133740 | 11.67° C | 55% | 992.6 hPa | 0 mm | - | - | - |
| 1777133244 | 11.11° C | 58% | 992.9 hPa | 0 mm | - | - | - |
| 1777133120 | 11.11° C | 57% | 992.6 hPa | 0 mm | - | - | - |
| 1777132189 | 10° C | 63% | 992.6 hPa | 0 mm | - | - | - |
| 1777131817 | 9.44° C | 63% | 992.9 hPa | 0 mm | - | - | - |
| 1777131693 | 9.44° C | 64% | 992.9 hPa | 0 mm | - | - | - |
| 1777131570 | 8.89° C | 65% | 992.9 hPa | 0 mm | - | - | - |
| 1777131165 | 8.33° C | 67% | 992.9 hPa | 0 mm | - | - | - |
| 1777130918 | 7.78° C | 66% | 992.9 hPa | 0 mm | - | - | - |
| 1777130263 | 7.22° C | 69% | 992.9 hPa | 0 mm | - | - | - |
| 1777129892 | 7.22° C | 67% | 992.9 hPa | 0 mm | - | - | - |
| 1777129768 | 7.22° C | 66% | 992.9 hPa | 0 mm | - | - | - |
| 1777129521 | 7.22° C | 67% | 992.9 hPa | 0 mm | - | - | - |
| 1777128778 | 7.22° C | 63% | 992.9 hPa | 0 mm | - | - | - |
| 1777127723 | 7.22° C | 63% | 992.9 hPa | 0 mm | - | - | - |
| 1777127577 | 7.22° C | 58% | 992.9 hPa | 0 mm | - | - | - |
* Rain latest hour (hover to see other rain measurements)
** Current wind speed in m/s (hover to see current wind gust speed)